createdAt,value
2018-02-21T00:00:03.292Z,91.90
2018-02-21T00:02:31.548Z,91.70
2018-02-21T00:05:00.365Z,91.60
2018-02-21T00:07:29.486Z,91.40
2018-02-21T00:09:57.967Z,91.30
2018-02-21T00:12:27.966Z,91.20
2018-02-21T00:14:55.907Z,91.10
2018-02-21T00:17:24.685Z,90.80
2018-02-21T00:19:53.425Z,90.80
2018-02-21T00:22:21.325Z,90.80
2018-02-21T00:24:49.406Z,91.00
2018-02-21T00:27:17.405Z,91.20
2018-02-21T00:29:45.557Z,91.40
2018-02-21T00:32:13.925Z,91.50
2018-02-21T00:34:41.888Z,91.60
2018-02-21T00:37:09.747Z,91.70
2018-02-21T00:39:38.053Z,91.70
2018-02-21T00:42:06.951Z,91.50
2018-02-21T00:44:34.851Z,91.50
2018-02-21T00:47:02.870Z,91.30
2018-02-21T00:49:31.531Z,91.20
2018-02-21T00:51:59.469Z,91.20
2018-02-21T00:54:27.850Z,91.00
2018-02-21T00:56:55.610Z,90.80
2018-02-21T00:59:23.869Z,91.00
2018-02-21T01:01:52.525Z,91.00
2018-02-21T01:04:20.725Z,91.10
2018-02-21T01:06:49.006Z,91.40
2018-02-21T01:09:17.025Z,91.40
2018-02-21T01:11:44.869Z,91.50
2018-02-21T01:14:12.748Z,91.60
2018-02-21T01:16:40.565Z,91.80
2018-02-21T01:19:08.786Z,91.80
2018-02-21T01:21:36.945Z,91.90
2018-02-21T01:24:05.911Z,91.90
2018-02-21T01:26:34.165Z,91.80
2018-02-21T01:29:02.445Z,91.70
2018-02-21T01:31:30.465Z,91.60
2018-02-21T01:33:59.105Z,91.60
2018-02-21T01:36:27.225Z,91.90
2018-02-21T01:38:55.725Z,91.60
2018-02-21T01:41:23.485Z,91.60
2018-02-21T01:43:52.147Z,91.50
2018-02-21T01:46:19.986Z,91.50
2018-02-21T01:48:47.866Z,91.50
2018-02-21T01:51:15.742Z,91.60
2018-02-21T01:53:43.567Z,91.60
2018-02-21T01:56:12.246Z,91.60
2018-02-21T01:58:41.245Z,91.40
2018-02-21T02:01:10.053Z,91.40
2018-02-21T02:03:37.873Z,91.30
2018-02-21T02:06:05.833Z,91.30
2018-02-21T02:08:33.794Z,91.20
2018-02-21T02:11:01.913Z,91.20
2018-02-21T02:13:29.813Z,91.20
2018-02-21T02:15:58.373Z,91.20
2018-02-21T02:18:26.553Z,91.20
2018-02-21T02:20:54.714Z,91.20
2018-02-21T02:23:22.533Z,91.30
2018-02-21T02:25:50.413Z,91.20
2018-02-21T02:28:18.861Z,91.20
2018-02-21T02:30:46.713Z,91.30
2018-02-21T02:33:16.533Z,91.20
2018-02-21T02:35:44.356Z,91.20
2018-02-21T02:38:23.933Z,91.30
2018-02-21T02:40:52.134Z,91.50
2018-02-21T02:43:20.333Z,91.60
2018-02-21T02:45:48.936Z,91.80
2018-02-21T02:48:17.452Z,91.70
2018-02-21T02:50:46.373Z,91.70
2018-02-21T02:53:14.855Z,91.70
2018-02-21T02:55:43.433Z,91.80
2018-02-21T02:58:12.276Z,91.80
2018-02-21T03:00:40.966Z,91.80
2018-02-21T03:03:09.087Z,91.80
2018-02-21T03:05:36.946Z,91.80
2018-02-21T03:08:04.806Z,91.80
2018-02-21T03:10:33.526Z,91.70
2018-02-21T03:13:02.026Z,91.50
2018-02-21T03:15:30.467Z,91.30
2018-02-21T03:17:58.697Z,91.50
2018-02-21T03:20:26.546Z,91.80
2018-02-21T03:22:54.667Z,92.10
2018-02-21T03:25:22.446Z,92.30
2018-02-21T03:27:50.428Z,92.30
2018-02-21T03:30:18.310Z,92.30
2018-02-21T03:32:46.366Z,92.30
2018-02-21T03:35:14.206Z,92.30
2018-02-21T03:37:42.175Z,92.20
2018-02-21T03:40:10.146Z,92.20
2018-02-21T03:42:37.987Z,92.30
2018-02-21T03:45:06.086Z,92.20
2018-02-21T03:47:34.365Z,92.30
2018-02-21T03:50:02.306Z,92.40
2018-02-21T03:52:31.087Z,92.40
2018-02-21T03:54:59.006Z,92.40
2018-02-21T03:57:27.067Z,92.50
2018-02-21T03:59:55.256Z,92.60
2018-02-21T04:02:23.130Z,92.40
2018-02-21T04:04:50.949Z,92.20
2018-02-21T04:07:19.611Z,91.70
2018-02-21T04:09:47.810Z,92.00
2018-02-21T04:12:17.250Z,92.20
2018-02-21T04:14:45.730Z,92.30
2018-02-21T04:17:13.610Z,92.50
2018-02-21T04:19:41.569Z,92.70
2018-02-21T04:22:10.170Z,92.20
2018-02-21T04:24:38.311Z,92.10
2018-02-21T04:27:06.490Z,91.50
2018-02-21T04:29:34.450Z,91.90
2018-02-21T04:32:02.390Z,92.20
2018-02-21T04:34:30.678Z,92.30
2018-02-21T04:36:58.569Z,92.50
2018-02-21T04:39:26.410Z,92.50
2018-02-21T04:41:54.650Z,92.50
2018-02-21T04:44:23.530Z,92.60
2018-02-21T04:46:51.490Z,92.10
2018-02-21T04:49:20.748Z,91.50
2018-02-21T04:51:49.490Z,91.70
2018-02-21T04:57:27.010Z,92.30
2018-02-21T05:00:02.231Z,92.40
2018-02-21T05:02:30.707Z,92.40
2018-02-21T05:04:59.207Z,92.40
2018-02-21T05:07:28.191Z,91.80
2018-02-21T05:09:56.453Z,91.70
2018-02-21T05:12:24.709Z,91.80
2018-02-21T05:14:52.994Z,91.80
2018-02-21T05:17:21.188Z,92.00
2018-02-21T05:19:49.768Z,92.20
2018-02-21T05:22:18.568Z,92.00
2018-02-21T05:24:46.509Z,92.00
2018-02-21T05:27:14.468Z,90.40
2018-02-21T05:29:42.488Z,91.60
2018-02-21T05:32:10.529Z,91.90
2018-02-21T05:34:39.290Z,92.20
2018-02-21T05:37:07.488Z,91.50
2018-02-21T05:39:35.748Z,91.40
2018-02-21T05:42:05.908Z,90.60
2018-02-21T05:44:33.811Z,90.70
2018-02-21T05:47:02.388Z,91.20
2018-02-21T05:49:31.488Z,91.90
2018-02-21T05:51:59.348Z,91.90
2018-02-21T05:54:27.488Z,92.00
2018-02-21T05:56:55.737Z,92.20
2018-02-21T05:59:25.130Z,92.10
2018-02-21T06:01:52.987Z,92.00
2018-02-21T06:04:21.086Z,91.70
2018-02-21T06:06:49.267Z,91.00
2018-02-21T06:09:17.914Z,91.50
2018-02-21T06:11:46.606Z,92.50
2018-02-21T06:14:14.615Z,92.50
2018-02-21T06:16:42.868Z,92.50
2018-02-21T06:19:11.526Z,92.40
2018-02-21T06:21:39.506Z,92.40
2018-02-21T06:24:07.610Z,90.90
2018-02-21T06:26:35.447Z,90.70
2018-02-21T06:29:03.966Z,90.20
2018-02-21T06:31:31.926Z,89.40
2018-02-21T06:33:59.955Z,89.70
2018-02-21T06:36:28.086Z,88.10
2018-02-21T06:38:56.767Z,86.70
2018-02-21T06:41:25.487Z,87.80
2018-02-21T06:43:53.481Z,87.80
2018-02-21T06:46:22.146Z,90.70
2018-02-21T06:48:50.606Z,92.00
2018-02-21T06:51:19.786Z,92.60
2018-02-21T06:53:48.446Z,93.00
2018-02-21T06:56:16.331Z,92.90
2018-02-21T06:58:44.171Z,92.90
2018-02-21T07:01:12.033Z,92.90
2018-02-21T07:03:40.395Z,92.80
2018-02-21T07:06:08.374Z,92.70
2018-02-21T07:08:36.591Z,92.50
2018-02-21T07:11:04.368Z,92.40
2018-02-21T07:13:32.267Z,92.30
2018-02-21T07:16:00.907Z,92.10
2018-02-21T07:18:30.038Z,92.00
2018-02-21T07:20:57.806Z,91.90
2018-02-21T07:23:25.826Z,92.20
2018-02-21T07:25:53.626Z,91.80
2018-02-21T07:28:21.806Z,91.70
2018-02-21T07:30:50.528Z,91.50
2018-02-21T07:33:18.407Z,91.50
2018-02-21T07:35:46.230Z,91.50
2018-02-21T07:38:14.808Z,91.50
2018-02-21T07:40:43.508Z,91.50
2018-02-21T07:43:11.347Z,91.50
2018-02-21T07:45:39.187Z,91.50
2018-02-21T07:48:07.127Z,91.50
2018-02-21T07:50:35.087Z,91.40
2018-02-21T07:53:02.947Z,91.80
2018-02-21T07:55:30.847Z,91.50
2018-02-21T07:57:59.972Z,91.40
2018-02-21T08:00:27.683Z,91.40
2018-02-21T08:02:55.610Z,91.40
2018-02-21T08:05:23.507Z,91.40
2018-02-21T08:07:51.568Z,91.40
2018-02-21T08:10:19.390Z,91.30
2018-02-21T08:12:47.328Z,91.20
2018-02-21T08:15:15.508Z,91.20
2018-02-21T08:17:44.868Z,91.20
2018-02-21T08:20:13.447Z,91.20
2018-02-21T08:22:41.348Z,91.00
2018-02-21T08:25:10.187Z,91.10
2018-02-21T08:30:10.950Z,90.80
2018-02-21T08:32:39.127Z,90.80
2018-02-21T08:35:07.247Z,90.70
2018-02-21T08:37:36.068Z,90.70
2018-02-21T08:40:03.890Z,90.70
2018-02-21T08:42:31.625Z,90.80
2018-02-21T08:44:59.487Z,90.80
2018-02-21T08:47:28.906Z,90.80
2018-02-21T08:49:56.887Z,90.70
2018-02-21T08:52:24.808Z,90.70
2018-02-21T08:54:52.605Z,90.70
2018-02-21T08:57:21.486Z,90.60
2018-02-21T08:59:49.306Z,90.60
2018-02-21T09:04:49.189Z,90.30
2018-02-21T09:07:17.089Z,89.90
2018-02-21T09:09:45.011Z,89.50
2018-02-21T09:12:12.772Z,89.10
2018-02-21T09:14:40.650Z,88.60
2018-02-21T09:17:08.390Z,88.60
2018-02-21T09:19:36.370Z,88.20
2018-02-21T09:22:04.310Z,87.90
2018-02-21T09:24:32.655Z,87.20
2018-02-21T09:27:00.467Z,87.30
2018-02-21T09:29:28.868Z,87.10
2018-02-21T09:31:57.408Z,86.80
2018-02-21T09:34:25.527Z,86.80
2018-02-21T09:36:53.447Z,86.60
2018-02-21T09:39:21.688Z,86.30
2018-02-21T09:41:49.568Z,86.30
2018-02-21T09:44:17.348Z,86.40
2018-02-21T09:46:45.127Z,86.60
2018-02-21T09:49:12.989Z,87.40
2018-02-21T09:51:40.903Z,88.10
2018-02-21T09:54:08.726Z,87.60
2018-02-21T09:56:36.646Z,87.40
2018-02-21T09:59:04.526Z,87.60
2018-02-21T10:01:34.066Z,88.30
2018-02-21T10:04:01.989Z,88.30
2018-02-21T10:06:30.047Z,88.30
2018-02-21T10:08:58.606Z,88.60
2018-02-21T10:11:27.713Z,88.60
2018-02-21T10:13:55.807Z,88.10
2018-02-21T10:16:23.727Z,88.30
2018-02-21T10:18:51.806Z,88.20
2018-02-21T10:21:21.253Z,88.50
2018-02-21T10:23:49.187Z,88.20
2018-02-21T10:26:17.026Z,88.00
2018-02-21T10:31:16.906Z,87.10
2018-02-21T10:33:44.828Z,86.90
2018-02-21T10:36:12.968Z,86.80
2018-02-21T10:38:40.686Z,86.40
2018-02-21T10:41:08.607Z,86.00
2018-02-21T10:43:37.247Z,85.50
2018-02-21T10:46:05.166Z,85.50
2018-02-21T10:48:33.005Z,85.60
2018-02-21T10:51:00.945Z,85.40
2018-02-21T10:53:28.707Z,85.20
2018-02-21T10:55:56.527Z,84.50
2018-02-21T10:58:24.366Z,84.40
2018-02-21T11:00:57.890Z,83.80
2018-02-21T11:03:26.466Z,83.80
2018-02-21T11:05:54.587Z,83.80
2018-02-21T11:08:22.467Z,83.30
2018-02-21T11:10:50.285Z,83.30
2018-02-21T11:13:18.108Z,83.10
2018-02-21T11:15:46.206Z,82.30
2018-02-21T11:18:14.413Z,82.90
2018-02-21T11:20:42.445Z,82.20
2018-02-21T11:23:10.405Z,82.10
2018-02-21T11:25:38.525Z,81.90
2018-02-21T11:28:06.525Z,82.00
2018-02-21T11:30:35.030Z,82.20
2018-02-21T11:33:02.845Z,82.30
2018-02-21T11:35:30.725Z,81.30
2018-02-21T11:37:59.340Z,81.50
2018-02-21T11:40:27.136Z,81.50
2018-02-21T11:42:54.905Z,81.40
2018-02-21T11:45:22.629Z,77.70
2018-02-21T11:47:50.427Z,80.20
2018-02-21T11:50:18.466Z,76.60
2018-02-21T11:52:47.327Z,78.70
2018-02-21T11:57:47.326Z,76.60
2018-02-21T12:00:15.246Z,81.40
2018-02-21T12:02:43.117Z,79.60
2018-02-21T12:05:11.006Z,81.20
2018-02-21T12:07:39.089Z,81.10
2018-02-21T12:10:07.728Z,70.90
2018-02-21T12:12:35.630Z,70.80
2018-02-21T12:15:03.552Z,76.70
2018-02-21T12:17:32.167Z,80.60
2018-02-21T12:20:00.306Z,80.70
2018-02-21T12:22:28.806Z,79.40
2018-02-21T12:24:58.068Z,79.40
2018-02-21T12:27:25.926Z,78.00
2018-02-21T12:29:53.807Z,77.70
2018-02-21T12:35:25.167Z,78.70
2018-02-21T12:37:53.046Z,78.80
2018-02-21T12:40:26.426Z,79.40
2018-02-21T12:42:54.350Z,79.80
2018-02-21T12:45:22.187Z,79.50
2018-02-21T12:47:50.228Z,80.20
2018-02-21T12:50:18.541Z,79.60
2018-02-21T12:52:47.974Z,79.80
2018-02-21T12:55:15.891Z,80.10
2018-02-21T12:57:43.871Z,81.20
2018-02-21T13:00:14.875Z,81.90
2018-02-21T13:02:42.946Z,81.10
2018-02-21T13:05:11.067Z,81.40
2018-02-21T13:07:39.195Z,81.70
2018-02-21T13:10:07.029Z,82.50
2018-02-21T13:12:34.906Z,83.00
2018-02-21T13:15:04.568Z,83.60
2018-02-21T13:17:32.447Z,84.10
2018-02-21T13:20:00.606Z,83.80
2018-02-21T13:22:28.446Z,83.70
2018-02-21T13:24:56.426Z,83.40
2018-02-21T13:27:24.327Z,82.60
2018-02-21T13:29:52.127Z,82.80
2018-02-21T13:32:20.305Z,83.30
2018-02-21T13:34:48.190Z,83.80
2018-02-21T13:37:16.206Z,83.80
2018-02-21T13:39:44.286Z,83.90
2018-02-21T13:42:12.412Z,83.30
2018-02-21T13:44:40.615Z,83.40
2018-02-21T13:47:08.812Z,83.80
2018-02-21T13:49:36.873Z,83.70
2018-02-21T13:52:05.096Z,84.20
2018-02-21T13:54:32.997Z,82.60
2018-02-21T13:57:01.183Z,82.20
2018-02-21T13:59:29.572Z,82.10
2018-02-21T14:01:57.367Z,82.30
2018-02-21T14:04:26.147Z,82.30
2018-02-21T14:06:54.035Z,82.50
2018-02-21T14:09:22.228Z,82.40
2018-02-21T14:11:50.153Z,82.10
2018-02-21T14:14:18.033Z,82.80
2018-02-21T14:16:45.871Z,83.90
2018-02-21T14:19:15.906Z,83.40
2018-02-21T14:21:43.947Z,83.40
2018-02-21T14:24:12.091Z,84.00
2018-02-21T14:26:39.967Z,84.50
2018-02-21T14:29:07.828Z,85.40
2018-02-21T14:31:36.287Z,85.50
2018-02-21T14:34:03.891Z,85.20
2018-02-21T14:36:31.498Z,84.80
2018-02-21T14:38:59.130Z,85.70
2018-02-21T14:41:26.756Z,86.80
2018-02-21T14:43:54.424Z,87.30
2018-02-21T14:46:22.017Z,87.10
2018-02-21T14:48:49.639Z,85.00
2018-02-21T14:51:17.298Z,85.90
2018-02-21T14:53:44.892Z,85.20
2018-02-21T14:56:13.032Z,81.80
2018-02-21T14:58:40.706Z,80.90
2018-02-21T15:01:08.344Z,81.30
2018-02-21T15:03:35.996Z,81.90
2018-02-21T15:06:04.170Z,83.00
2018-02-21T15:08:32.007Z,82.80
2018-02-21T15:10:59.950Z,83.80
2018-02-21T15:13:27.748Z,83.90
2018-02-21T15:15:55.608Z,83.70
2018-02-21T15:18:23.647Z,83.50
2018-02-21T15:20:51.493Z,83.60
2018-02-21T15:23:19.450Z,84.50
2018-02-21T15:25:47.327Z,84.50
2018-02-21T15:28:15.268Z,84.50
2018-02-21T15:30:43.396Z,84.90
2018-02-21T15:33:11.348Z,85.50
2018-02-21T15:35:39.187Z,85.30
2018-02-21T15:38:08.549Z,85.40
2018-02-21T15:40:36.772Z,85.10
2018-02-21T15:43:04.650Z,84.50
2018-02-21T15:45:32.489Z,84.70
2018-02-21T15:48:00.427Z,85.10
2018-02-21T15:50:28.578Z,86.20
2018-02-21T15:52:56.488Z,86.60
2018-02-21T15:55:24.448Z,86.60
2018-02-21T15:57:53.028Z,86.20
2018-02-21T16:00:20.737Z,86.20
2018-02-21T16:02:48.876Z,85.60
2018-02-21T16:05:17.287Z,86.00
2018-02-21T16:07:46.406Z,86.10
2018-02-21T16:10:14.326Z,86.10
2018-02-21T16:12:42.553Z,86.10
2018-02-21T16:15:11.132Z,86.40
2018-02-21T16:17:39.174Z,87.00
2018-02-21T16:20:07.092Z,87.60
2018-02-21T16:22:34.934Z,87.80
2018-02-21T16:25:02.731Z,88.40
2018-02-21T16:27:30.855Z,88.70
2018-02-21T16:29:58.730Z,88.30
2018-02-21T16:32:27.891Z,88.50
2018-02-21T16:34:55.850Z,88.50
2018-02-21T16:37:23.690Z,88.40
2018-02-21T16:39:52.351Z,88.50
2018-02-21T16:42:20.232Z,88.50
2018-02-21T16:44:48.091Z,88.60
2018-02-21T16:47:16.171Z,88.70
2018-02-21T16:49:43.952Z,88.60
2018-02-21T16:52:11.933Z,88.50
2018-02-21T16:54:40.312Z,88.90
2018-02-21T16:57:08.412Z,89.10
2018-02-21T16:59:36.689Z,89.20
2018-02-21T17:02:04.827Z,89.10
2018-02-21T17:04:32.931Z,89.50
2018-02-21T17:07:00.889Z,89.80
2018-02-21T17:09:28.808Z,89.80
2018-02-21T17:11:57.687Z,89.70
2018-02-21T17:14:25.827Z,89.40
2018-02-21T17:16:53.608Z,89.70
2018-02-21T17:19:21.629Z,88.80
2018-02-21T17:21:50.472Z,87.40
2018-02-21T17:24:18.851Z,87.40
2018-02-21T17:26:46.691Z,87.90
2018-02-21T17:29:14.807Z,88.40
2018-02-21T17:31:43.387Z,89.40
2018-02-21T17:34:11.490Z,89.30
2018-02-21T17:36:39.309Z,89.70
2018-02-21T17:39:07.288Z,89.80
2018-02-21T17:41:35.188Z,90.00
2018-02-21T17:44:03.009Z,90.10
2018-02-21T17:46:32.543Z,90.30
2018-02-21T17:49:00.651Z,90.30
2018-02-21T17:51:28.648Z,90.40
2018-02-21T17:53:56.789Z,90.30
2018-02-21T17:56:24.647Z,90.20
2018-02-21T17:58:53.046Z,90.50
2018-02-21T18:01:20.889Z,90.10
2018-02-21T18:03:49.449Z,90.00
2018-02-21T18:06:17.368Z,90.00
2018-02-21T18:08:45.328Z,89.90
2018-02-21T18:11:13.169Z,89.90
2018-02-21T18:13:41.029Z,90.10
2018-02-21T18:16:08.985Z,89.70
2018-02-21T18:18:36.924Z,89.90
2018-02-21T18:21:04.805Z,90.00
2018-02-21T18:23:33.068Z,90.00
2018-02-21T18:26:00.891Z,90.00
2018-02-21T18:28:28.665Z,90.10
2018-02-21T18:30:56.605Z,90.30
2018-02-21T18:33:24.367Z,90.30
2018-02-21T18:35:52.456Z,90.30
2018-02-21T18:38:20.209Z,90.40
2018-02-21T18:40:47.987Z,90.50
2018-02-21T18:43:16.768Z,90.50
2018-02-21T18:45:44.612Z,90.50
2018-02-21T18:48:12.446Z,90.50
2018-02-21T18:50:40.296Z,90.60
2018-02-21T18:53:09.512Z,90.00
2018-02-21T18:55:37.766Z,89.90
2018-02-21T18:58:05.531Z,90.10
2018-02-21T19:00:33.388Z,89.90
2018-02-21T19:03:01.446Z,90.00
2018-02-21T19:05:29.246Z,90.00
2018-02-21T19:07:57.025Z,90.30
2018-02-21T19:10:24.925Z,90.00
2018-02-21T19:12:53.046Z,90.10
2018-02-21T19:15:20.826Z,90.20
2018-02-21T19:17:48.730Z,90.20
2018-02-21T19:20:16.507Z,90.10
2018-02-21T19:22:44.448Z,90.10
2018-02-21T19:25:12.316Z,89.60
2018-02-21T19:27:40.010Z,89.30
2018-02-21T19:30:07.739Z,90.10
2018-02-21T19:32:35.632Z,90.00
2018-02-21T19:35:03.371Z,89.60
2018-02-21T19:37:32.011Z,89.20
2018-02-21T19:39:59.833Z,89.20
2018-02-21T19:42:28.017Z,89.50
2018-02-21T19:44:55.811Z,89.30
2018-02-21T19:47:23.572Z,89.70
2018-02-21T19:49:51.367Z,90.00
2018-02-21T19:52:20.756Z,90.10
2018-02-21T19:54:48.653Z,90.30
2018-02-21T19:57:16.449Z,90.50
2018-02-21T19:59:44.657Z,89.80
2018-02-21T20:02:12.512Z,87.00
2018-02-21T20:04:40.610Z,86.70
2018-02-21T20:07:08.430Z,86.10
2018-02-21T20:09:36.428Z,82.60
2018-02-21T20:12:04.628Z,81.00
2018-02-21T20:14:32.429Z,86.30
2018-02-21T20:17:01.207Z,89.70
2018-02-21T20:19:29.368Z,89.10
2018-02-21T20:21:57.268Z,87.60
2018-02-21T20:24:25.087Z,87.40
2018-02-21T20:26:52.947Z,86.10
2018-02-21T20:29:20.807Z,89.40
2018-02-21T20:31:48.627Z,90.90
2018-02-21T20:34:16.667Z,91.20
2018-02-21T20:36:44.568Z,91.40
2018-02-21T20:39:12.586Z,91.10
2018-02-21T20:41:40.726Z,90.90
2018-02-21T20:44:08.606Z,90.60
2018-02-21T20:49:08.369Z,90.80
2018-02-21T20:51:36.989Z,90.40
2018-02-21T20:54:04.867Z,90.40
2018-02-21T20:56:32.711Z,90.50
2018-02-21T20:59:00.649Z,90.70
2018-02-21T21:01:28.614Z,90.30
2018-02-21T21:03:56.447Z,90.30
2018-02-21T21:06:24.289Z,90.70
2018-02-21T21:08:52.208Z,90.70
2018-02-21T21:11:21.075Z,90.80
2018-02-21T21:13:49.092Z,90.50
2018-02-21T21:16:17.344Z,89.70
2018-02-21T21:18:45.195Z,90.10
2018-02-21T21:21:13.092Z,90.80
2018-02-21T21:23:41.007Z,91.00
2018-02-21T21:26:08.936Z,90.50
2018-02-21T21:28:37.050Z,90.80
2018-02-21T21:31:04.957Z,91.00
2018-02-21T21:33:33.050Z,91.00
2018-02-21T21:36:01.890Z,90.90
2018-02-21T21:38:32.174Z,90.90
2018-02-21T21:41:01.430Z,90.70
2018-02-21T21:43:29.148Z,90.90
2018-02-21T21:45:56.911Z,91.00
2018-02-21T21:48:24.768Z,91.30
2018-02-21T21:50:53.288Z,90.10
2018-02-21T21:53:21.072Z,90.10
2018-02-21T21:55:48.830Z,90.50
2018-02-21T21:58:16.572Z,91.00
2018-02-21T22:00:44.892Z,90.40
2018-02-21T22:03:12.654Z,90.60
2018-02-21T22:05:40.376Z,90.70
2018-02-21T22:08:08.210Z,90.70
2018-02-21T22:10:36.190Z,90.20
2018-02-21T22:13:03.971Z,90.30
2018-02-21T22:15:31.771Z,90.90
2018-02-21T22:17:59.513Z,91.10
2018-02-21T22:20:27.367Z,91.20
2018-02-21T22:22:55.169Z,91.00
2018-02-21T22:25:22.949Z,91.00
2018-02-21T22:27:50.729Z,90.90
2018-02-21T22:30:21.176Z,90.90
2018-02-21T22:32:48.985Z,90.90
2018-02-21T22:35:17.013Z,90.60
2018-02-21T22:37:45.294Z,90.50
2018-02-21T22:40:13.088Z,90.70
2018-02-21T22:42:41.253Z,90.40
2018-02-21T22:45:09.166Z,90.80
2018-02-21T22:47:37.766Z,91.10
2018-02-21T22:50:06.150Z,91.10
2018-02-21T22:52:34.367Z,91.10
2018-02-21T22:55:02.127Z,91.00
2018-02-21T22:57:29.967Z,91.00
2018-02-21T22:59:57.987Z,90.90
2018-02-21T23:02:25.855Z,90.80
2018-02-21T23:04:53.975Z,90.70
2018-02-21T23:07:22.156Z,90.70
2018-02-21T23:09:50.282Z,90.70
2018-02-21T23:12:18.074Z,90.70
2018-02-21T23:14:45.955Z,90.60
2018-02-21T23:17:13.775Z,90.70
2018-02-21T23:19:41.615Z,90.90
2018-02-21T23:22:09.595Z,91.10
2018-02-21T23:24:37.394Z,91.30
2018-02-21T23:27:05.174Z,91.40
2018-02-21T23:29:33.054Z,91.80
2018-02-21T23:32:01.355Z,91.80
2018-02-21T23:34:29.715Z,91.90
2018-02-21T23:36:57.654Z,91.90
2018-02-21T23:39:25.575Z,91.80
2018-02-21T23:41:53.575Z,91.90
2018-02-21T23:44:21.495Z,91.70
2018-02-21T23:46:51.169Z,91.80
2018-02-21T23:49:19.128Z,91.90
2018-02-21T23:51:47.027Z,91.90
2018-02-21T23:54:15.048Z,91.90
2018-02-21T23:56:42.968Z,91.80
2018-02-21T23:59:10.808Z,91.90
